Time;durP1;ratioP1;P1;durP2;ratioP2;P2;SDS_P1;SDS_P2;PMS_P1;PMS_P2;Temp;Humidity;BMP_temperature;BMP_pressure;BME280_temperature;BME280_humidity;BME280_pressure;Samples;Min_cycle;Max_cycle;Signal;HPM_P1;HPM_P2
2023/03/30 00:00:44;;;;;;;3.20;0.93;;;;;;;21.91;38.86;100444.38;4934488;28;20058;-64
2023/03/30 00:03:09;;;;;;;2.00;0.75;;;;;;;21.89;38.83;100449.19;4934700;28;20028;-64
2023/03/30 00:05:35;;;;;;;2.67;0.50;;;;;;;21.89;39.15;100450.03;4950746;29;20027;-64
2023/03/30 00:08:01;;;;;;;4.85;0.85;;;;;;;21.91;39.39;100447.94;4934434;28;20039;-64
2023/03/30 00:10:28;;;;;;;2.42;1.17;;;;;;;21.93;39.47;100439.53;4950138;28;20043;-64
2023/03/30 00:12:54;;;;;;;8.52;1.00;;;;;;;21.94;39.02;100435.78;4934489;28;20051;-64
2023/03/30 00:15:21;;;;;;;3.85;1.00;;;;;;;21.95;38.52;100429.25;4934370;28;20058;-65
2023/03/30 00:17:47;;;;;;;1.40;0.90;;;;;;;21.97;38.52;100429.88;4934762;28;20024;-64
2023/03/30 00:20:13;;;;;;;4.25;0.70;;;;;;;21.99;38.49;100411.41;4951282;28;20054;-64
2023/03/30 00:22:40;;;;;;;4.43;1.35;;;;;;;22.01;38.77;100409.31;4950136;28;20045;-64
2023/03/30 00:25:07;;;;;;;3.50;0.93;;;;;;;22.03;38.39;100412.66;4935866;28;20104;-64
2023/03/30 00:27:33;;;;;;;5.15;0.88;;;;;;;22.05;39.12;100413.28;4937321;29;20425;-64
2023/03/30 00:29:59;;;;;;;3.55;0.77;;;;;;;22.11;38.99;100414.31;4937162;28;20032;-64
2023/03/30 00:32:24;;;;;;;5.15;0.85;;;;;;;22.14;38.39;100403.00;4937924;28;20403;-64
2023/03/30 00:34:50;;;;;;;1.35;0.88;;;;;;;22.14;38.92;100386.63;4969361;28;20415;-64
2023/03/30 00:37:15;;;;;;;7.05;1.08;;;;;;;22.15;38.49;100389.13;4954620;28;20055;-64
2023/03/30 00:39:41;;;;;;;4.18;0.88;;;;;;;22.14;38.95;100379.25;4937984;28;20040;-64
2023/03/30 00:42:08;;;;;;;1.35;0.60;;;;;;;22.18;39.08;100391.41;4954201;28;20529;-64
2023/03/30 00:45:16;;;;;;;4.30;0.70;;;;;;;22.18;38.55;100388.69;4937624;28;20034;-64
2023/03/30 00:47:51;;;;;;;1.52;0.60;;;;;;;22.19;38.58;100390.38;4937272;28;20047;-64
2023/03/30 00:50:20;;;;;;;1.42;0.63;;;;;;;22.22;39.09;100392.66;4968924;28;20101;-64
2023/03/30 00:52:47;;;;;;;4.25;0.80;;;;;;;22.23;38.12;100386.16;4953144;28;20031;-64
2023/03/30 00:55:13;;;;;;;4.97;0.85;;;;;;;22.24;38.80;100390.56;4937284;28;20039;-64
2023/03/30 00:57:40;;;;;;;2.67;1.00;;;;;;;22.23;38.90;100375.22;4937256;28;20081;-64
2023/03/30 01:00:07;;;;;;;5.97;0.85;;;;;;;22.28;38.89;100380.06;4969322;28;20390;-64
2023/03/30 01:02:36;;;;;;;2.42;0.82;;;;;;;22.27;38.55;100376.47;4955407;28;20035;-63
2023/03/30 01:05:03;;;;;;;4.20;1.15;;;;;;;22.27;38.51;100373.75;4953085;28;20097;-63
2023/03/30 01:07:30;;;;;;;2.72;0.85;;;;;;;22.25;38.58;100375.03;4952762;28;20039;-63
2023/03/30 01:09:56;;;;;;;3.55;1.27;;;;;;;22.27;38.52;100387.41;4952536;28;20036;-63
2023/03/30 01:12:21;;;;;;;3.45;1.08;;;;;;;22.27;38.07;100387.41;4968831;28;20046;-63
2023/03/30 01:14:47;;;;;;;6.95;1.38;;;;;;;22.28;38.74;100386.31;4937130;29;20031;-63
2023/03/30 01:17:15;;;;;;;5.47;1.60;;;;;;;22.27;38.12;100392.88;4953786;28;20039;-64
2023/03/30 01:19:58;;;;;;;2.78;1.05;;;;;;;22.28;38.03;100390.97;4953912;28;20044;-63
2023/03/30 01:22:36;;;;;;;7.32;1.05;;;;;;;22.26;38.41;100377.53;4946590;28;20514;-63
2023/03/30 01:25:25;;;;;;;3.83;1.23;;;;;;;22.26;38.54;100382.13;4956714;28;20031;-63
2023/03/30 01:28:21;;;;;;;3.03;1.13;;;;;;;22.24;38.44;100378.81;4937087;28;20380;-63
2023/03/30 01:31:07;;;;;;;6.07;1.38;;;;;;;22.22;38.83;100373.53;4952913;28;20039;-63
2023/03/30 01:33:58;;;;;;;4.75;1.00;;;;;;;22.20;38.69;100374.81;4952456;28;20050;-63
2023/03/30 01:36:30;;;;;;;5.88;1.40;;;;;;;22.20;39.16;100374.81;4951615;28;20039;-63
2023/03/30 01:39:11;;;;;;;3.17;0.82;;;;;;;22.19;39.19;100368.53;4952726;29;20475;-63
2023/03/30 01:42:12;;;;;;;3.40;0.80;;;;;;;22.18;39.20;100361.41;4953964;28;20047;-63
2023/03/30 01:45:09;;;;;;;4.28;0.70;;;;;;;22.19;38.14;100352.16;4951877;28;20039;-63
2023/03/30 01:47:54;;;;;;;2.42;1.25;;;;;;;22.18;38.75;100350.47;4936130;28;20034;-63
2023/03/30 01:50:48;;;;;;;5.28;0.70;;;;;;;22.19;39.16;100346.72;4953338;28;20402;-64
2023/03/30 01:53:23;;;;;;;4.07;1.05;;;;;;;22.20;38.06;100359.28;4952459;28;20186;-63
2023/03/30 01:56:14;;;;;;;2.63;0.95;;;;;;;22.20;38.22;100342.91;4952123;28;20525;-63
2023/03/30 01:58:43;;;;;;;6.63;0.75;;;;;;;22.21;38.59;100347.31;4951990;28;20122;-63
2023/03/30 02:01:09;;;;;;;2.75;0.60;;;;;;;22.20;38.20;100344.78;4952210;28;20035;-63
2023/03/30 02:03:40;;;;;;;4.97;0.77;;;;;;;22.16;38.70;100336.22;4920171;29;20023;-63
2023/03/30 02:06:26;;;;;;;2.42;0.70;;;;;;;22.19;38.57;100324.88;4953215;28;20031;-63
2023/03/30 02:08:53;;;;;;;2.85;1.00;;;;;;;22.20;38.47;100331.16;4952280;28;20023;-63
2023/03/30 02:11:19;;;;;;;1.95;1.10;;;;;;;22.15;38.10;100323.63;4967860;28;20185;-63
2023/03/30 02:13:46;;;;;;;2.83;0.70;;;;;;;22.17;38.30;100329.69;4951912;28;20042;-63
2023/03/30 02:16:15;;;;;;;4.75;1.23;;;;;;;22.17;38.31;100321.50;4936166;28;20042;-63
2023/03/30 02:18:40;;;;;;;6.13;0.80;;;;;;;22.19;38.81;100332.22;4936030;28;20035;-63
2023/03/30 02:21:07;;;;;;;3.30;0.73;;;;;;;22.19;38.93;100330.34;4951649;28;20479;-63
2023/03/30 02:23:35;;;;;;;3.38;0.68;;;;;;;22.19;38.01;100329.50;4953721;28;20027;-63
2023/03/30 02:26:01;;;;;;;2.03;0.70;;;;;;;22.18;38.45;100325.94;4935687;28;20039;-63
2023/03/30 02:28:26;;;;;;;4.82;0.75;;;;;;;22.15;38.46;100318.16;4951727;28;20057;-63
2023/03/30 02:30:52;;;;;;;1.83;0.80;;;;;;;22.15;38.57;100318.16;4935534;28;20032;-63
2023/03/30 02:33:27;;;;;;;3.30;0.98;;;;;;;22.14;38.99;100316.50;4952874;28;20444;-63
2023/03/30 02:36:12;;;;;;;4.32;0.75;;;;;;;22.11;38.57;100307.91;4936382;28;20113;-63
2023/03/30 02:38:54;;;;;;;2.13;0.88;;;;;;;22.10;39.21;100315.25;4951648;28;20422;-63
2023/03/30 02:41:25;;;;;;;6.72;1.30;;;;;;;22.09;38.16;100308.13;4935593;28;20085;-63
2023/03/30 02:44:03;;;;;;;3.85;1.27;;;;;;;22.10;38.45;100309.81;4951367;28;20040;-63
2023/03/30 02:46:44;;;;;;;3.03;0.70;;;;;;;22.10;38.18;100307.06;4935718;28;20032;-63
2023/03/30 02:49:15;;;;;;;1.52;0.68;;;;;;;22.09;38.26;100310.00;4952641;28;20065;-63
2023/03/30 02:51:44;;;;;;;1.10;0.70;;;;;;;22.06;39.09;100303.09;4951755;28;20114;-63
2023/03/30 02:54:22;;;;;;;2.90;1.10;;;;;;;22.05;38.92;100312.34;4952594;28;20027;-63
2023/03/30 02:56:54;;;;;;;8.35;1.10;;;;;;;22.02;38.63;100318.25;4935692;28;20019;-63
2023/03/30 02:59:23;;;;;;;3.22;0.70;;;;;;;21.99;38.25;100321.41;4951351;28;20031;-63
2023/03/30 03:01:52;;;;;;;3.30;1.20;;;;;;;21.98;39.19;100327.91;4935149;28;20039;-63
2023/03/30 03:04:18;;;;;;;2.90;0.70;;;;;;;21.94;38.89;100332.94;4951255;28;20035;-63
2023/03/30 03:06:45;;;;;;;1.45;0.75;;;;;;;21.91;38.43;100329.81;4935266;28;20035;-63
2023/03/30 03:09:10;;;;;;;2.95;0.73;;;;;;;21.88;38.66;100322.06;4951022;28;20027;-63
2023/03/30 03:11:35;;;;;;;2.33;0.70;;;;;;;21.87;38.86;100317.66;4919620;29;20042;-63
2023/03/30 03:14:01;;;;;;;4.18;1.15;;;;;;;21.85;38.46;100317.00;4952317;28;20035;-63
2023/03/30 03:16:26;;;;;;;1.13;0.73;;;;;;;21.84;39.41;100315.31;4935262;28;20085;-67
2023/03/30 03:18:52;;;;;;;4.38;1.10;;;;;;;21.84;39.08;100318.03;4935460;28;20499;-63
2023/03/30 03:21:17;;;;;;;4.93;0.95;;;;;;;21.85;38.51;100311.56;4935493;28;20093;-63
2023/03/30 03:23:43;;;;;;;2.38;1.27;;;;;;;21.83;38.48;100314.47;4935859;28;20055;-63
2023/03/30 03:26:10;;;;;;;5.28;0.80;;;;;;;21.82;39.44;100307.38;4950951;28;20035;-63
2023/03/30 03:28:36;;;;;;;5.32;1.10;;;;;;;21.81;38.50;100304.84;4919341;29;20027;-63
2023/03/30 03:31:02;;;;;;;4.63;1.48;;;;;;;21.78;38.46;100302.53;4934828;28;20047;-63
2023/03/30 03:33:29;;;;;;;5.80;1.13;;;;;;;21.74;38.89;100306.75;4919102;28;20062;-63
2023/03/30 03:35:58;;;;;;;4.47;1.20;;;;;;;21.69;39.36;100299.19;4951370;28;20507;-63
2023/03/30 03:38:25;;;;;;;4.38;1.95;;;;;;;21.69;38.79;100301.13;4951913;28;20104;-63
2023/03/30 03:40:51;;;;;;;3.55;1.73;;;;;;;21.66;38.88;100293.38;4951113;28;20036;-63
2023/03/30 03:43:18;;;;;;;2.17;0.98;;;;;;;21.65;39.59;100297.13;4934983;28;20047;-63
2023/03/30 03:45:47;;;;;;;6.03;1.52;;;;;;;21.60;39.65;100316.03;4951235;28;20035;-63
2023/03/30 03:48:14;;;;;;;3.60;1.38;;;;;;;21.57;39.63;100327.34;4935290;28;20028;-63
2023/03/30 03:50:40;;;;;;;4.25;1.00;;;;;;;21.54;39.47;100319.59;4967006;28;20055;-63
2023/03/30 03:53:06;;;;;;;3.42;1.30;;;;;;;21.52;38.93;100316.25;4934835;28;20041;-63
2023/03/30 03:55:34;;;;;;;6.15;1.38;;;;;;;21.46;39.32;100318.78;4933369;28;20085;-63
2023/03/30 03:58:00;;;;;;;6.07;0.85;;;;;;;21.47;39.79;100314.16;4932576;28;20128;-63
2023/03/30 04:00:26;;;;;;;1.30;0.93;;;;;;;21.46;39.45;100307.88;4933336;29;20036;-63
2023/03/30 04:02:51;;;;;;;4.53;0.95;;;;;;;21.46;39.69;100317.94;4935296;29;20028;-63
2023/03/30 04:05:17;;;;;;;5.35;1.30;;;;;;;21.44;39.43;100314.56;4934743;28;20040;-63
2023/03/30 04:07:45;;;;;;;2.67;0.80;;;;;;;21.47;39.41;100308.69;4935876;28;20122;-63
2023/03/30 04:10:11;;;;;;;3.10;0.75;;;;;;;21.50;40.35;100318.38;4935955;28;20054;-63
2023/03/30 04:12:37;;;;;;;2.22;0.95;;;;;;;21.54;39.58;100309.53;4919048;29;20032;-63
2023/03/30 04:15:04;;;;;;;1.33;0.90;;;;;;;21.55;39.92;100304.94;4918784;28;20031;-63
2023/03/30 04:17:32;;;;;;;10.43;1.05;;;;;;;21.59;39.69;100301.56;4934825;28;20027;-63
2023/03/30 04:20:04;;;;;;;2.13;1.05;;;;;;;21.62;39.94;100303.84;4950383;28;20036;-63
2023/03/30 04:22:32;;;;;;;0.90;0.57;;;;;;;21.65;39.60;100302.59;4935658;28;20043;-63
2023/03/30 04:24:58;;;;;;;3.88;0.68;;;;;;;21.63;39.88;100293.78;4934568;28;20024;-63
2023/03/30 04:27:27;;;;;;;3.20;0.95;;;;;;;21.66;39.77;100290.63;4918609;28;20035;-64
2023/03/30 04:29:56;;;;;;;2.83;0.77;;;;;;;21.69;39.85;100298.41;4950721;28;20028;-63
2023/03/30 04:32:22;;;;;;;3.08;0.95;;;;;;;21.73;39.55;100299.63;4934571;28;20105;-63
2023/03/30 04:34:47;;;;;;;2.58;0.95;;;;;;;21.73;39.13;100310.53;4917780;28;20075;-63
2023/03/30 04:37:17;;;;;;;3.47;0.73;;;;;;;21.71;39.88;100308.03;4934445;28;20066;-63
2023/03/30 04:39:45;;;;;;;1.13;0.55;;;;;;;21.71;39.01;100299.00;4919185;28;20102;-63
2023/03/30 04:42:14;;;;;;;0.88;0.50;;;;;;;21.70;39.57;100297.31;4934790;28;20036;-63
2023/03/30 04:44:39;;;;;;;3.63;0.73;;;;;;;21.71;39.66;100296.28;4935487;28;20023;-63
2023/03/30 04:47:05;;;;;;;2.97;1.40;;;;;;;21.74;39.90;100290.41;4934617;28;20042;-63
2023/03/30 04:49:31;;;;;;;2.35;0.73;;;;;;;21.73;39.40;100296.91;4950115;28;20063;-63
2023/03/30 04:51:56;;;;;;;3.80;0.80;;;;;;;21.74;38.97;100314.94;4934467;28;20491;-63
2023/03/30 04:54:22;;;;;;;1.23;0.45;;;;;;;21.70;39.60;100309.06;4934280;28;20035;-63
2023/03/30 04:56:47;;;;;;;2.70;0.52;;;;;;;21.71;39.90;100315.38;4918926;28;20509;-63
2023/03/30 04:59:13;;;;;;;1.35;0.50;;;;;;;21.72;39.65;100297.97;4934260;28;20028;-63
2023/03/30 05:01:38;;;;;;;1.33;0.60;;;;;;;21.73;39.42;100305.06;4932745;28;20127;-63
2023/03/30 05:04:04;;;;;;;1.08;0.90;;;;;;;21.74;39.66;100302.16;4950097;28;20056;-63
2023/03/30 05:06:29;;;;;;;4.68;0.98;;;;;;;21.74;39.03;100309.50;4933799;28;20028;-63
2023/03/30 05:08:55;;;;;;;2.75;0.60;;;;;;;21.76;38.99;100312.84;4934174;28;20549;-64
2023/03/30 05:11:21;;;;;;;0.95;0.60;;;;;;;21.73;39.18;100315.97;4932537;29;20094;-63
2023/03/30 05:13:46;;;;;;;3.47;0.90;;;;;;;21.72;39.56;100306.16;4902530;28;20051;-63
2023/03/30 05:16:12;;;;;;;3.45;0.93;;;;;;;21.75;39.49;100328.34;4917871;28;20147;-63
2023/03/30 05:18:38;;;;;;;1.20;0.55;;;;;;;21.74;39.74;100318.50;4949694;28;20032;-63
2023/03/30 05:21:03;;;;;;;5.18;0.75;;;;;;;21.72;39.38;100312.41;4933583;28;20094;-63
2023/03/30 05:23:29;;;;;;;2.10;0.85;;;;;;;21.69;39.60;100312.03;4942365;28;20027;-63
2023/03/30 05:25:54;;;;;;;4.88;0.80;;;;;;;21.69;39.43;100312.03;4945786;28;20040;-63
2023/03/30 05:28:21;;;;;;;3.22;0.80;;;;;;;21.65;39.34;100316.22;4917732;28;20040;-63
2023/03/30 05:30:52;;;;;;;2.90;1.15;;;;;;;21.66;40.01;100324.19;4933720;28;20388;-63
2023/03/30 05:33:17;;;;;;;2.90;0.85;;;;;;;21.62;39.90;100312.03;4933788;28;20097;-63
2023/03/30 05:35:43;;;;;;;6.03;1.02;;;;;;;21.57;39.56;100317.28;4918067;29;20035;-63
2023/03/30 05:38:08;;;;;;;3.17;0.85;;;;;;;21.53;39.59;100307.00;4933452;28;20538;-62
2023/03/30 05:40:33;;;;;;;5.30;1.00;;;;;;;21.51;39.37;100309.13;4933210;28;20126;-64
2023/03/30 05:42:59;;;;;;;2.78;0.70;;;;;;;21.47;39.14;100304.09;4933363;28;20032;-63
2023/03/30 05:45:24;;;;;;;3.35;1.20;;;;;;;21.46;40.20;100312.50;4934504;28;20031;-63
2023/03/30 05:47:52;;;;;;;4.05;1.00;;;;;;;21.46;40.05;100318.78;4936179;29;20123;-63
2023/03/30 05:50:18;;;;;;;1.88;0.98;;;;;;;21.45;39.72;100317.09;4933792;28;20035;-63
2023/03/30 05:52:43;;;;;;;3.70;0.60;;;;;;;21.44;39.73;100315.41;4935102;28;20039;-63
2023/03/30 05:55:08;;;;;;;1.33;0.50;;;;;;;21.41;40.56;100310.38;4933157;28;20043;-63
2023/03/30 05:57:34;;;;;;;3.33;0.75;;;;;;;21.40;40.13;100319.63;4932917;28;20119;-63
2023/03/30 05:59:59;;;;;;;6.65;0.88;;;;;;;21.44;40.15;100323.59;4916996;28;20107;-64
2023/03/30 06:02:26;;;;;;;4.10;0.98;;;;;;;21.46;40.14;100316.06;4917459;29;20035;-63
2023/03/30 06:04:51;;;;;;;1.83;0.70;;;;;;;21.48;39.71;100324.84;4932796;28;20503;-63
2023/03/30 06:07:16;;;;;;;0.73;0.50;;;;;;;21.52;40.34;100316.25;4932919;28;20046;-63
2023/03/30 06:09:42;;;;;;;4.60;0.75;;;;;;;21.55;39.53;100333.03;4932720;28;20043;-63
2023/03/30 06:12:08;;;;;;;2.28;0.45;;;;;;;21.57;39.78;100330.91;4916821;28;20032;-63
2023/03/30 06:14:33;;;;;;;2.88;0.73;;;;;;;21.59;39.97;100322.50;4917397;29;20028;-63
2023/03/30 06:16:59;;;;;;;3.47;0.38;;;;;;;21.61;40.22;100329.44;4916918;28;20534;-63
2023/03/30 06:19:24;;;;;;;1.83;0.88;;;;;;;21.63;39.89;100329.22;4932755;28;20564;-63
2023/03/30 06:21:50;;;;;;;1.25;0.40;;;;;;;21.69;40.01;100347.47;4932261;28;20042;-63
2023/03/30 06:24:15;;;;;;;2.25;0.80;;;;;;;21.72;40.00;100344.31;4916710;28;20032;-63
2023/03/30 06:26:41;;;;;;;0.77;0.40;;;;;;;21.82;39.46;100345.53;4917235;29;20403;-63
2023/03/30 06:29:06;;;;;;;1.90;0.98;;;;;;;21.97;39.68;100354.31;4932428;28;20032;-63
2023/03/30 06:31:32;;;;;;;3.35;0.70;;;;;;;21.99;39.53;100360.44;4932592;28;20054;-63
2023/03/30 06:33:58;;;;;;;3.70;0.85;;;;;;;21.97;39.74;100353.50;4933789;28;20039;-63
2023/03/30 06:36:23;;;;;;;4.38;0.75;;;;;;;21.89;40.19;100367.34;4900903;28;20028;-63
2023/03/30 06:38:49;;;;;;;5.47;0.60;;;;;;;21.85;39.98;100387.91;4932603;29;20455;-63
2023/03/30 06:41:14;;;;;;;3.05;0.77;;;;;;;21.79;40.13;100391.47;4916532;28;20044;-63
2023/03/30 06:43:40;;;;;;;7.32;0.80;;;;;;;21.74;39.86;100391.28;4916508;28;20032;-63
2023/03/30 06:46:06;;;;;;;2.90;0.70;;;;;;;21.65;39.91;100398.00;4933591;28;20028;-63
2023/03/30 06:48:32;;;;;;;0.50;0.30;;;;;;;21.54;40.31;100406.81;4916566;28;20039;-63
2023/03/30 06:50:58;;;;;;;4.75;0.80;;;;;;;21.41;41.32;100408.50;4933393;28;20031;-65
2023/03/30 06:53:23;;;;;;;6.63;0.65;;;;;;;21.27;41.41;100406.00;4932568;29;20418;-63
2023/03/30 06:55:56;;;;;;;5.00;0.63;;;;;;;21.14;41.03;100401.34;4916361;28;20035;-63
2023/03/30 06:58:23;;;;;;;4.35;0.60;;;;;;;21.09;41.60;100409.31;4932142;28;20507;-63
2023/03/30 07:00:49;;;;;;;2.78;0.75;;;;;;;21.05;41.69;100426.25;4932026;28;20038;-63
2023/03/30 07:03:17;;;;;;;3.95;0.88;;;;;;;20.95;42.37;100421.22;4916403;28;20024;-63
2023/03/30 07:05:46;;;;;;;6.47;0.90;;;;;;;20.86;41.81;100426.00;4932422;29;20517;-63
2023/03/30 07:08:13;;;;;;;4.35;0.98;;;;;;;20.80;42.51;100428.69;4932020;28;20057;-63
2023/03/30 07:10:38;;;;;;;6.50;0.80;;;;;;;20.77;42.34;100421.78;4931775;28;20039;-63
2023/03/30 07:13:05;;;;;;;8.82;0.90;;;;;;;20.77;43.00;100440.84;4933256;28;20035;-63
2023/03/30 07:15:30;;;;;;;2.72;0.70;;;;;;;20.78;42.44;100433.50;4932035;28;20097;-63
2023/03/30 07:17:56;;;;;;;2.95;0.80;;;;;;;20.77;42.34;100442.75;4932346;29;20123;-63
2023/03/30 07:20:21;;;;;;;4.38;0.68;;;;;;;20.74;42.72;100435.00;4916074;28;20029;-63
2023/03/30 07:22:46;;;;;;;7.85;0.82;;;;;;;20.75;42.92;100439.38;4932004;28;20043;-63
2023/03/30 07:25:12;;;;;;;3.80;0.98;;;;;;;20.76;42.74;100430.16;4931694;28;20070;-64
2023/03/30 07:27:37;;;;;;;3.47;1.10;;;;;;;20.79;42.86;100429.75;4931818;28;20038;-63
2023/03/30 07:30:04;;;;;;;4.93;1.02;;;;;;;21.19;42.23;100442.44;4931819;28;20040;-63
2023/03/30 07:32:30;;;;;;;4.88;0.95;;;;;;;21.22;42.25;100438.44;4932106;29;20034;-63
2023/03/30 07:34:56;;;;;;;6.13;0.95;;;;;;;21.36;43.09;100446.44;4931057;28;20115;-63
2023/03/30 07:37:23;;;;;;;8.20;1.83;;;;;;;21.69;41.85;100440.16;4931655;28;20031;-63
2023/03/30 07:39:49;;;;;;;13.20;1.30;;;;;;;22.02;41.96;100443.72;4932830;28;20055;-64
2023/03/30 07:42:14;;;;;;;6.03;0.90;;;;;;;22.48;41.35;100438.13;4916610;28;20038;-63
2023/03/30 07:44:40;;;;;;;3.20;1.00;;;;;;;22.57;41.70;100432.22;4916635;29;20118;-63
2023/03/30 07:47:05;;;;;;;4.70;1.13;;;;;;;22.85;41.33;100441.97;4931625;28;20526;-63
2023/03/30 07:49:31;;;;;;;1.73;0.82;;;;;;;23.05;40.88;100445.44;4915763;28;20504;-63
2023/03/30 07:51:57;;;;;;;5.13;0.82;;;;;;;23.39;41.36;100446.91;4931542;28;20027;-64
2023/03/30 07:54:22;;;;;;;3.20;1.17;;;;;;;23.51;40.83;100445.97;4931650;28;20035;-64
2023/03/30 07:56:54;;;;;;;3.00;0.98;;;;;;;23.70;40.81;100449.63;4916993;29;20031;-63
2023/03/30 07:59:20;;;;;;;3.15;1.20;;;;;;;23.59;41.40;100462.09;4934198;28;20111;-63
2023/03/30 08:01:49;;;;;;;3.67;1.00;;;;;;;23.58;41.41;100463.19;4931474;28;20028;-63
2023/03/30 08:04:14;;;;;;;2.42;0.63;;;;;;;23.65;41.16;100457.63;4931584;28;20043;-63
2023/03/30 08:06:40;;;;;;;8.73;1.13;;;;;;;23.76;40.73;100467.84;4931556;28;20086;-63
2023/03/30 08:09:05;;;;;;;3.13;0.68;;;;;;;23.48;40.65;100476.47;4931546;28;20118;-64
2023/03/30 08:11:32;;;;;;;1.35;0.52;;;;;;;23.30;40.76;100481.84;4932023;29;20038;-63
2023/03/30 08:13:57;;;;;;;8.10;1.00;;;;;;;23.23;41.00;100470.09;4915878;28;20569;-63
2023/03/30 08:16:22;;;;;;;6.47;0.90;;;;;;;23.02;41.26;100478.66;4915628;28;20044;-63
2023/03/30 08:18:48;;;;;;;2.65;0.65;;;;;;;22.80;41.41;100485.50;4915247;28;20024;-64
2023/03/30 08:21:13;;;;;;;9.43;1.60;;;;;;;22.48;41.95;100493.56;4915177;28;20031;-64
2023/03/30 08:23:39;;;;;;;5.50;1.08;;;;;;;22.17;42.03;100506.22;4931803;29;20039;-63
2023/03/30 08:26:05;;;;;;;6.72;1.20;;;;;;;21.83;42.29;100488.19;4931188;28;20036;-64
2023/03/30 08:28:30;;;;;;;8.57;1.15;;;;;;;21.58;41.92;100500.78;4915312;28;20114;-63
2023/03/30 08:31:02;;;;;;;11.02;1.13;;;;;;;21.41;42.65;100506.59;4915337;28;20403;-63
2023/03/30 08:33:27;;;;;;;6.57;1.35;;;;;;;21.39;42.78;100507.88;4931121;28;20028;-63
2023/03/30 08:35:52;;;;;;;10.18;1.50;;;;;;;21.39;42.65;100503.25;4947389;28;20056;-64
2023/03/30 08:38:18;;;;;;;8.05;1.30;;;;;;;21.52;42.52;100496.16;4930948;28;20051;-63
2023/03/30 08:40:48;;;;;;;8.00;1.33;;;;;;;22.09;41.31;100495.53;4932005;28;20100;-63
2023/03/30 08:43:41;;;;;;;5.75;1.15;;;;;;;22.35;41.21;100490.88;4931140;28;20039;-63
2023/03/30 08:46:09;;;;;;;;;;;;;;;22.50;41.71;100502.38;4933927;28;20031;-63
2023/03/30 08:48:38;;;;;;;4.25;1.35;;;;;;;22.69;41.33;100510.75;4918303;28;19915;-63
2023/03/30 08:51:28;;;;;;;3.22;0.73;;;;;;;22.47;41.26;100508.25;4934121;28;20495;-64
2023/03/30 08:53:56;;;;;;;2.97;0.90;;;;;;;22.27;41.84;100512.09;4934401;28;20035;-64
2023/03/30 08:56:30;;;;;;;4.13;1.15;;;;;;;22.11;42.36;100520.72;4934030;28;20038;-63
2023/03/30 08:59:20;;;;;;;6.72;1.05;;;;;;;21.96;42.32;100526.41;4933928;29;20028;-63
2023/03/30 09:01:53;;;;;;;1.52;0.75;;;;;;;21.75;42.31;100524.69;4935055;28;20503;-63
2023/03/30 09:04:18;;;;;;;3.60;0.90;;;;;;;21.61;42.32;100522.19;4933951;28;20039;-63
2023/03/30 09:06:51;;;;;;;4.72;0.85;;;;;;;21.48;42.29;100529.28;4935008;28;20174;-63
2023/03/30 09:09:18;;;;;;;7.05;1.00;;;;;;;21.37;42.52;100543.50;4933873;28;20070;-63
2023/03/30 09:11:45;;;;;;;7.32;1.23;;;;;;;21.26;42.45;100541.38;4918681;29;20097;-63
2023/03/30 09:14:40;;;;;;;4.90;1.20;;;;;;;21.18;42.91;100538.00;4933718;28;20032;-63
2023/03/30 09:17:11;;;;;;;2.58;0.73;;;;;;;21.11;42.81;100550.75;4933473;29;20040;-63
2023/03/30 09:19:50;;;;;;;3.60;0.65;;;;;;;21.11;42.57;100554.31;4917985;29;20539;-63
2023/03/30 09:22:17;;;;;;;3.45;0.90;;;;;;;21.08;42.64;100557.44;4933440;29;20040;-63
2023/03/30 09:24:42;;;;;;;3.22;0.82;;;;;;;21.09;43.33;100561.88;4933595;28;20587;-63
2023/03/30 09:27:15;;;;;;;4.20;0.60;;;;;;;21.10;42.78;100558.09;4933476;28;20118;-63
2023/03/30 09:29:53;;;;;;;2.20;0.80;;;;;;;21.13;43.08;100563.16;4933905;28;20386;-63
2023/03/30 09:32:31;;;;;;;4.05;0.90;;;;;;;21.12;42.56;100564.19;4933568;28;20028;-63
2023/03/30 09:35:02;;;;;;;3.17;0.90;;;;;;;21.12;42.27;100566.91;4933437;29;20466;-63
2023/03/30 09:37:27;;;;;;;4.35;1.00;;;;;;;21.09;43.27;100577.38;4933365;29;20504;-63
2023/03/30 09:39:53;;;;;;;2.65;0.90;;;;;;;21.08;42.46;100573.78;4933320;28;20055;-63
2023/03/30 09:42:40;;;;;;;2.13;1.05;;;;;;;21.08;43.20;100575.69;4949439;28;20442;-62
2023/03/30 09:45:41;;;;;;;2.63;0.65;;;;;;;21.15;43.63;100582.84;4933268;28;20059;-63
2023/03/30 09:48:08;;;;;;;3.80;0.90;;;;;;;21.35;42.55;100578.31;4935210;28;20023;-63
2023/03/30 09:50:44;;;;;;;1.98;0.73;;;;;;;22.70;41.44;100578.81;4951773;29;20108;-63
2023/03/30 09:53:30;;;;;;;3.22;0.80;;;;;;;24.45;38.58;100568.94;4951559;28;20051;-63
2023/03/30 09:56:20;;;;;;;2.38;0.63;;;;;;;24.74;39.28;100576.41;4951205;28;20035;-63
2023/03/30 09:58:45;;;;;;;2.22;0.45;;;;;;;24.94;38.90;100578.97;4935016;28;20383;-63
2023/03/30 10:01:17;;;;;;;2.13;0.50;;;;;;;25.30;38.59;100567.97;4951537;28;20105;-63
2023/03/30 10:03:45;;;;;;;2.27;0.60;;;;;;;25.88;38.72;100559.94;4951404;28;20042;-63
2023/03/30 10:06:17;;;;;;;0.63;0.40;;;;;;;26.67;37.33;100554.97;4935530;28;20510;-63
2023/03/30 10:08:51;;;;;;;2.85;0.47;;;;;;;27.44;37.18;100560.00;4935882;29;20483;-63
2023/03/30 10:11:32;;;;;;;2.72;0.77;;;;;;;27.99;35.93;100568.41;4950892;28;20564;-64
2023/03/30 10:13:58;;;;;;;2.10;0.50;;;;;;;28.48;35.81;100574.16;4935186;28;20051;-64
2023/03/30 10:16:27;;;;;;;1.55;0.55;;;;;;;28.87;35.40;100567.59;4951031;28;20097;-66
2023/03/30 10:18:56;;;;;;;2.40;0.65;;;;;;;29.58;34.77;100560.19;4918998;28;20027;-64
2023/03/30 10:21:26;;;;;;;1.55;0.73;;;;;;;29.67;34.51;100569.69;4931284;28;20047;-63
2023/03/30 10:24:06;;;;;;;2.20;0.80;;;;;;;29.41;34.62;100566.66;4934167;29;20028;-64
2023/03/30 10:26:35;;;;;;;3.75;0.50;;;;;;;29.87;34.28;100556.09;4932735;29;20055;-64
2023/03/30 10:29:03;;;;;;;4.43;0.80;;;;;;;30.59;33.33;100553.66;4916442;29;20423;-65
2023/03/30 10:31:29;;;;;;;2.70;0.80;;;;;;;30.45;33.52;100549.69;4916546;29;20446;-65
2023/03/30 10:33:59;;;;;;;3.60;0.70;;;;;;;30.57;33.20;100553.91;4933435;28;20035;-66
2023/03/30 10:36:29;;;;;;;5.53;1.25;;;;;;;30.75;32.91;100554.56;4932183;28;20609;-66
2023/03/30 10:39:02;;;;;;;5.15;0.70;;;;;;;30.13;33.06;100551.59;4933594;29;20047;-65
2023/03/30 10:41:27;;;;;;;;;;;;;;;29.24;34.75;100554.88;4916960;28;20419;-65
2023/03/30 10:43:52;;;;;;;5.72;1.02;;;;;;;28.61;35.70;100560.03;4932303;28;19923;-65
2023/03/30 10:46:21;;;;;;;2.55;0.88;;;;;;;28.47;35.30;100553.22;4932114;28;20032;-65
2023/03/30 10:48:59;;;;;;;3.75;0.70;;;;;;;28.23;34.67;100552.56;4916385;28;20032;-65
2023/03/30 10:51:33;;;;;;;1.08;0.45;;;;;;;27.72;35.58;100548.94;4933639;28;20471;-65
2023/03/30 10:54:29;;;;;;;4.57;1.00;;;;;;;28.11;35.14;100560.91;4933339;28;20039;-65
2023/03/30 10:57:00;;;;;;;5.20;0.90;;;;;;;27.74;34.45;100554.19;4948626;29;20395;-65
2023/03/30 10:59:34;;;;;;;3.22;0.80;;;;;;;27.58;34.66;100555.81;4916349;29;20050;-64
2023/03/30 11:02:05;;;;;;;2.15;0.70;;;;;;;26.97;35.61;100556.50;4931882;28;20044;-64
2023/03/30 11:04:42;;;;;;;3.78;0.77;;;;;;;26.36;36.69;100568.03;4933303;28;20407;-64
2023/03/30 11:07:15;;;;;;;7.40;1.25;;;;;;;25.69;36.98;100569.31;4932016;29;20028;-64
2023/03/30 11:09:47;;;;;;;2.58;0.73;;;;;;;25.13;37.80;100571.56;4930834;29;20028;-63
2023/03/30 11:12:19;;;;;;;2.67;1.00;;;;;;;25.13;37.72;100577.88;4931981;28;20045;-63
2023/03/30 11:14:56;;;;;;;3.42;1.17;;;;;;;24.74;37.90;100578.31;4932713;28;20027;-63
2023/03/30 11:17:26;;;;;;;3.97;0.65;;;;;;;24.48;38.44;100573.97;4931839;28;20052;-63
2023/03/30 11:19:56;;;;;;;1.55;0.65;;;;;;;24.39;38.47;100589.00;4932071;28;20115;-63
2023/03/30 11:22:41;;;;;;;3.05;0.80;;;;;;;24.05;38.22;100575.78;4931664;29;20407;-63
2023/03/30 11:25:20;;;;;;;3.55;0.90;;;;;;;23.70;39.28;100587.19;4947996;28;20514;-63
2023/03/30 11:27:54;;;;;;;11.95;1.55;;;;;;;23.41;38.83;100587.81;4931917;29;20496;-63
2023/03/30 11:30:25;;;;;;;4.97;0.82;;;;;;;23.21;39.46;100587.03;4931627;28;20044;-63
2023/03/30 11:33:00;;;;;;;5.00;0.80;;;;;;;23.02;39.23;100599.72;4932167;28;20019;-63
2023/03/30 11:35:44;;;;;;;3.65;0.73;;;;;;;22.79;39.44;100602.09;4933163;29;20056;-63
2023/03/30 11:38:25;;;;;;;2.75;0.70;;;;;;;22.54;40.71;100612.84;4932983;28;20036;-63